Time;durP1;ratioP1;P1;durP2;ratioP2;P2;SDS_P1;SDS_P2;PMS_P1;PMS_P2;Temp;Humidity;BMP_temperature;BMP_pressure;BME280_temperature;BME280_humidity;BME280_pressure;Samples;Min_cycle;Max_cycle;Signal;HPM_P1;HPM_P2
2023/09/10 00:02:42;;;;;;;23.20;6.28;;;;;;;20.27;32.46;100770.13;1767061;80;21858;-77
2023/09/10 00:05:47;;;;;;;14.30;5.60;;;;;;;20.27;32.45;100765.42;1775826;79;21304;-77
2023/09/10 00:08:52;;;;;;;13.08;5.87;;;;;;;20.22;32.40;100769.97;1727343;82;21328;-77
2023/09/10 00:11:58;;;;;;;12.23;5.50;;;;;;;19.99;32.69;100771.45;1747731;82;21921;-77
2023/09/10 00:15:04;;;;;;;17.15;6.00;;;;;;;19.72;32.93;100773.63;1748097;82;21503;-77
2023/09/10 00:18:11;;;;;;;12.88;5.90;;;;;;;19.80;32.96;100773.86;1747002;82;21236;-78
2023/09/10 00:21:17;;;;;;;14.47;6.00;;;;;;;19.51;33.53;100776.18;1747135;82;22412;-78
2023/09/10 00:24:22;;;;;;;21.82;5.70;;;;;;;19.56;33.48;100776.89;1737620;82;21993;-78
2023/09/10 00:27:27;;;;;;;14.98;5.25;;;;;;;19.58;33.47;100777.00;1771275;81;21322;-78
2023/09/10 00:30:34;;;;;;;10.93;5.30;;;;;;;19.52;33.54;100772.33;1772242;81;21874;-78
2023/09/10 00:33:39;;;;;;;9.70;4.97;;;;;;;19.53;33.54;100775.98;1771643;81;21295;-78
2023/09/10 00:36:46;;;;;;;17.77;5.83;;;;;;;19.57;33.54;100773.04;1772174;81;21304;-78
2023/09/10 00:39:45;;;;;;;10.23;5.70;;;;;;;19.59;33.53;100772.30;1763572;79;21297;-78
2023/09/10 00:42:53;;;;;;;15.32;6.25;;;;;;;19.60;33.55;100774.88;1762871;81;21301;-78
2023/09/10 00:45:58;;;;;;;15.20;6.17;;;;;;;19.51;33.71;100776.18;1763213;81;21309;-78
2023/09/10 00:49:06;;;;;;;10.53;5.67;;;;;;;19.45;33.78;100776.23;1762890;81;21313;-78
2023/09/10 00:52:12;;;;;;;12.10;5.20;;;;;;;19.39;33.85;100780.22;1768535;79;21346;-78
2023/09/10 00:55:16;;;;;;;11.22;5.53;;;;;;;19.52;33.72;100769.55;1735516;82;21886;-78
2023/09/10 00:58:23;;;;;;;10.35;5.80;;;;;;;19.46;33.88;100762.67;1757440;81;21327;-78
2023/09/10 01:01:29;;;;;;;10.30;5.67;;;;;;;19.32;34.19;100767.45;1756635;81;21308;-77
2023/09/10 01:04:35;;;;;;;13.28;5.80;;;;;;;19.35;34.09;100762.32;1794679;79;21347;-78
2023/09/10 01:07:41;;;;;;;15.65;5.95;;;;;;;19.34;34.09;100763.94;1782236;79;21651;-78
2023/09/10 01:11:17;;;;;;;11.73;5.83;;;;;;;19.43;33.90;100761.72;1762520;81;21304;-77
2023/09/10 01:14:43;;;;;;;12.80;5.53;;;;;;;19.47;33.84;100763.83;1762152;81;21303;-77
2023/09/10 01:18:18;;;;;;;19.60;6.08;;;;;;;19.46;33.84;100770.45;1762298;81;21306;-78
2023/09/10 01:21:47;;;;;;;18.95;5.87;;;;;;;19.42;33.86;100759.48;1762342;81;21295;-77
2023/09/10 01:24:56;;;;;;;11.83;5.83;;;;;;;19.38;34.04;100761.00;1761162;80;21365;-77
2023/09/10 01:28:06;;;;;;;21.23;6.97;;;;;;;19.35;34.16;100756.77;1762442;81;21312;-78
2023/09/10 01:31:09;;;;;;;11.53;6.83;;;;;;;19.21;34.41;100759.85;1762128;81;21883;-77
2023/09/10 01:34:15;;;;;;;16.15;8.00;;;;;;;18.98;34.78;100763.17;1760769;81;21340;-78
2023/09/10 01:37:21;;;;;;;12.13;6.42;;;;;;;18.99;34.71;100767.09;1762774;81;21893;-77
2023/09/10 01:40:16;;;;;;;22.37;6.40;;;;;;;18.99;34.72;100762.09;1793054;80;21360;-78
2023/09/10 01:43:22;;;;;;;12.05;6.45;;;;;;;19.12;34.75;100771.19;1793472;79;21846;-77
2023/09/10 01:46:28;;;;;;;17.92;6.55;;;;;;;19.18;34.76;100765.83;1791912;79;21279;-78
2023/09/10 01:49:33;;;;;;;13.05;7.17;;;;;;;19.14;34.83;100767.65;1774393;79;21276;-77
2023/09/10 01:52:40;;;;;;;11.50;6.30;;;;;;;18.91;35.08;100775.66;1782602;79;21302;-78
2023/09/10 01:55:45;;;;;;;11.45;5.85;;;;;;;19.00;35.14;100775.72;1761267;81;21315;-77
2023/09/10 01:58:51;;;;;;;12.70;6.15;;;;;;;19.10;35.16;100773.86;1762066;81;21917;-78
2023/09/10 02:01:57;;;;;;;15.30;6.67;;;;;;;19.14;35.32;100775.97;1762027;81;21303;-78
2023/09/10 02:05:04;;;;;;;17.65;6.60;;;;;;;19.19;35.33;100772.53;1763925;81;21329;-78
2023/09/10 02:08:10;;;;;;;10.88;6.58;;;;;;;19.19;35.37;100773.07;1763054;79;21910;-77
2023/09/10 02:11:16;;;;;;;15.08;6.87;;;;;;;19.08;35.53;100776.02;1804838;79;21311;-77
2023/09/10 02:14:21;;;;;;;16.60;6.12;;;;;;;19.12;35.42;100774.51;1804143;79;21295;-77
2023/09/10 02:17:26;;;;;;;17.57;6.03;;;;;;;19.11;35.46;100770.89;1804012;79;21292;-78
2023/09/10 02:20:32;;;;;;;14.90;6.95;;;;;;;19.28;35.29;100768.97;1803975;79;21310;-78
2023/09/10 02:23:37;;;;;;;8.55;5.62;;;;;;;19.09;35.72;100773.55;1795608;79;21302;-78
2023/09/10 02:26:42;;;;;;;14.28;6.83;;;;;;;19.07;35.79;100773.78;1772547;81;21295;-78
2023/09/10 02:29:48;;;;;;;12.43;6.42;;;;;;;19.10;35.74;100771.97;1772510;81;21318;-78
2023/09/10 02:32:54;;;;;;;17.77;6.30;;;;;;;19.20;35.56;100769.25;1772276;81;21279;-77
2023/09/10 02:36:00;;;;;;;19.07;7.12;;;;;;;19.14;35.43;100769.03;1771313;81;21299;-77
2023/09/10 02:39:07;;;;;;;14.93;6.65;;;;;;;18.99;35.63;100767.09;1761725;79;21325;-77
2023/09/10 02:42:13;;;;;;;19.37;7.17;;;;;;;19.04;35.69;100770.59;1774962;81;21344;-77
2023/09/10 02:45:19;;;;;;;13.15;7.58;;;;;;;19.04;35.70;100765.05;1774829;81;21950;-80
2023/09/10 02:48:24;;;;;;;14.70;6.90;;;;;;;19.15;35.68;100770.77;1774992;81;21340;-80
2023/09/10 02:51:30;;;;;;;21.35;7.53;;;;;;;19.12;35.83;100767.03;1775374;81;21317;-80
2023/09/10 02:54:37;;;;;;;19.00;7.90;;;;;;;19.06;35.88;100762.38;1794033;79;21275;-80
2023/09/10 02:57:43;;;;;;;18.23;7.80;;;;;;;18.99;35.96;100764.33;1804504;79;21283;-79
2023/09/10 03:00:48;;;;;;;16.12;7.97;;;;;;;19.12;35.90;100764.80;1804516;79;21322;-77
2023/09/10 03:03:56;;;;;;;20.50;8.48;;;;;;;19.13;35.96;100770.11;1804197;79;21318;-76
2023/09/10 03:07:02;;;;;;;17.98;8.68;;;;;;;19.11;36.02;100772.27;1808941;79;21346;-77
2023/09/10 03:10:08;;;;;;;18.87;9.33;;;;;;;19.17;35.83;100764.98;1714901;82;21322;-79
2023/09/10 03:13:13;;;;;;;21.77;8.50;;;;;;;19.12;35.85;100771.19;1730162;83;21344;-79
2023/09/10 03:16:19;;;;;;;15.48;8.60;;;;;;;19.19;35.75;100777.23;1740780;82;21925;-79
2023/09/10 03:19:24;;;;;;;17.70;8.20;;;;;;;19.22;35.65;100772.09;1739997;82;21966;-80
2023/09/10 03:22:29;;;;;;;22.82;9.20;;;;;;;19.07;35.99;100776.55;1741644;82;21319;-77
2023/09/10 03:25:35;;;;;;;18.87;8.45;;;;;;;19.18;35.77;100781.93;1798311;79;21668;-77
2023/09/10 03:28:40;;;;;;;25.48;8.38;;;;;;;19.27;35.63;100780.59;1799395;79;21290;-76
2023/09/10 03:31:47;;;;;;;16.60;8.88;;;;;;;19.33;35.46;100774.69;1799275;79;21291;-77
2023/09/10 03:34:53;;;;;;;22.55;8.65;;;;;;;19.42;35.38;100781.68;1798734;79;21330;-78
2023/09/10 03:37:58;;;;;;;19.55;9.03;;;;;;;19.44;35.37;100787.02;1798887;79;21349;-78
2023/09/10 03:41:04;;;;;;;23.62;8.18;;;;;;;19.59;35.16;100782.86;1799687;79;21279;-77
2023/09/10 03:44:11;;;;;;;23.27;8.45;;;;;;;19.66;35.06;100786.45;1799575;79;21322;-78
2023/09/10 03:47:17;;;;;;;14.23;7.42;;;;;;;19.85;34.88;100787.38;1798352;79;21346;-77
2023/09/10 03:50:23;;;;;;;13.35;7.33;;;;;;;19.74;35.13;100795.59;1798372;79;21307;-77
2023/09/10 03:53:29;;;;;;;20.40;8.25;;;;;;;19.90;34.96;100797.29;1783777;79;21834;-77
2023/09/10 03:56:35;;;;;;;25.20;8.05;;;;;;;19.98;34.93;100796.14;1798935;79;21290;-78
2023/09/10 03:59:41;;;;;;;18.32;9.53;;;;;;;19.96;34.99;100801.08;1799581;79;21272;-77
2023/09/10 04:02:47;;;;;;;21.25;8.18;;;;;;;20.14;34.79;100805.30;1799634;79;21326;-77
2023/09/10 04:05:53;;;;;;;27.35;8.73;;;;;;;20.27;34.55;100804.31;1797606;79;21338;-78
2023/09/10 04:08:59;;;;;;;12.90;7.30;;;;;;;20.53;34.26;100812.97;1799197;79;21275;-78
2023/09/10 04:12:04;;;;;;;14.18;7.42;;;;;;;20.61;34.18;100816.84;1799363;79;21276;-78
2023/09/10 04:15:11;;;;;;;23.50;9.13;;;;;;;20.71;34.12;100814.07;1799423;79;21330;-78
2023/09/10 04:18:17;;;;;;;19.27;9.40;;;;;;;20.86;33.96;100824.27;1799448;79;21838;-78
2023/09/10 04:21:23;;;;;;;25.68;10.23;;;;;;;20.91;34.05;100816.07;1798569;79;21331;-78
2023/09/10 04:24:29;;;;;;;17.35;9.90;;;;;;;21.01;33.98;100819.16;1767731;81;21294;-78
2023/09/10 04:27:34;;;;;;;25.02;10.20;;;;;;;21.04;33.99;100817.30;1766415;81;21334;-78
2023/09/10 04:30:40;;;;;;;18.73;8.85;;;;;;;21.17;33.94;100819.92;1767592;81;21309;-78
2023/09/10 04:33:46;;;;;;;24.52;8.75;;;;;;;21.09;33.95;100818.84;1767762;81;21298;-78
2023/09/10 04:36:53;;;;;;;16.75;8.10;;;;;;;21.17;34.04;100812.97;1768025;79;21336;-78
2023/09/10 04:40:00;;;;;;;13.08;7.10;;;;;;;21.31;33.59;100815.58;1716702;82;21842;-77
2023/09/10 04:43:07;;;;;;;19.52;8.83;;;;;;;21.46;33.41;100811.86;1767644;81;21319;-77
2023/09/10 04:46:13;;;;;;;18.75;9.38;;;;;;;21.74;33.16;100815.92;1767907;81;21303;-78
2023/09/10 04:49:19;;;;;;;29.90;9.98;;;;;;;21.80;32.90;100809.42;1767819;81;21322;-77
2023/09/10 04:52:23;;;;;;;23.90;10.85;;;;;;;22.01;32.64;100803.27;1766626;81;21961;-78
2023/09/10 04:55:29;;;;;;;22.55;10.75;;;;;;;22.38;32.07;100804.48;1768002;81;21295;-78
2023/09/10 04:58:35;;;;;;;26.93;10.35;;;;;;;22.53;31.73;100804.84;1766655;81;21299;-78
2023/09/10 05:01:41;;;;;;;20.68;9.63;;;;;;;22.47;31.64;100805.83;1767832;81;21307;-77
2023/09/10 05:04:48;;;;;;;18.70;8.08;;;;;;;22.67;31.46;100809.07;1767961;81;21949;-78
2023/09/10 05:07:57;;;;;;;16.07;8.35;;;;;;;22.84;31.36;100811.13;1780402;79;21639;-78
2023/09/10 05:11:03;;;;;;;20.20;8.50;;;;;;;23.10;31.16;100810.63;1769616;81;21353;-78
2023/09/10 05:14:09;;;;;;;17.00;7.72;;;;;;;23.23;30.62;100816.44;1770592;81;21314;-78
2023/09/10 05:17:15;;;;;;;18.02;7.05;;;;;;;23.35;30.57;100813.08;1768645;81;21286;-78
2023/09/10 05:20:20;;;;;;;16.55;8.60;;;;;;;23.55;30.29;100807.03;1770013;81;21302;-78
2023/09/10 05:23:29;;;;;;;7.10;4.28;;;;;;;23.65;30.29;100811.99;1785462;79;21278;-78
2023/09/10 05:26:34;;;;;;;9.35;3.95;;;;;;;23.76;30.01;100807.44;1769429;81;21346;-78
2023/09/10 05:29:39;;;;;;;11.35;4.47;;;;;;;24.10;29.45;100813.37;1769518;81;21319;-78
2023/09/10 05:32:44;;;;;;;16.05;4.20;;;;;;;24.13;29.53;100808.65;1769704;81;21294;-78
2023/09/10 05:35:50;;;;;;;9.23;3.75;;;;;;;24.21;29.57;100805.99;1769985;81;21311;-78
2023/09/10 05:38:56;;;;;;;7.67;3.92;;;;;;;24.29;29.24;100808.92;1770980;80;21332;-78
2023/09/10 05:42:02;;;;;;;10.25;3.92;;;;;;;24.34;29.15;100813.19;1771007;80;21330;-77
2023/09/10 05:45:07;;;;;;;11.40;2.90;;;;;;;24.89;28.49;100810.94;1773127;80;21316;-78
2023/09/10 05:48:13;;;;;;;6.87;3.98;;;;;;;25.04;28.18;100814.52;1772079;80;22630;-78
2023/09/10 05:51:19;;;;;;;5.72;2.95;;;;;;;25.02;28.17;100817.55;1772817;80;21305;-78
2023/09/10 05:54:26;;;;;;;8.50;3.10;;;;;;;25.05;28.18;100812.84;1773304;80;21320;-77
2023/09/10 05:57:31;;;;;;;4.87;3.02;;;;;;;25.06;27.92;100823.48;1772393;80;21345;-77
2023/09/10 06:00:36;;;;;;;11.20;2.70;;;;;;;25.33;27.78;100817.98;1773127;80;21278;-77
2023/09/10 06:03:42;;;;;;;3.70;2.50;;;;;;;25.48;27.25;100823.19;1772561;80;21305;-77
2023/09/10 06:06:48;;;;;;;8.08;3.02;;;;;;;25.41;27.30;100828.73;1773374;79;21338;-78
2023/09/10 06:09:55;;;;;;;6.40;2.80;;;;;;;25.77;26.93;100830.53;1801972;78;21892;-77
2023/09/10 06:13:01;;;;;;;7.30;3.58;;;;;;;26.17;26.59;100830.92;1803237;79;21331;-78
2023/09/10 06:16:07;;;;;;;9.00;2.67;;;;;;;26.02;26.50;100835.00;1802590;79;21627;-78
2023/09/10 06:19:12;;;;;;;6.30;2.47;;;;;;;26.30;26.00;100834.37;1804413;79;21932;-78
2023/09/10 06:22:18;;;;;;;5.58;2.25;;;;;;;26.15;26.41;100836.49;1803571;79;21288;-78
2023/09/10 06:25:24;;;;;;;6.35;3.00;;;;;;;25.44;26.98;100849.19;1727539;82;21896;-78
2023/09/10 06:28:29;;;;;;;8.68;2.60;;;;;;;25.43;27.30;100845.54;1789662;80;22640;-78
2023/09/10 06:31:36;;;;;;;9.10;2.40;;;;;;;26.15;26.50;100851.35;1790691;80;21306;-77
2023/09/10 06:34:42;;;;;;;4.92;2.42;;;;;;;26.49;26.04;100837.10;1790690;80;21296;-78
2023/09/10 06:37:48;;;;;;;5.45;2.72;;;;;;;26.70;25.38;100859.95;1795723;79;21318;-78
2023/09/10 06:40:55;;;;;;;4.95;3.25;;;;;;;26.62;25.71;100850.63;1804175;79;21279;-78
2023/09/10 06:44:01;;;;;;;7.33;2.80;;;;;;;26.81;25.81;100848.23;1802741;79;21897;-78
2023/09/10 06:47:01;;;;;;;17.20;2.25;;;;;;;26.96;25.28;100852.55;1804064;79;21263;-79
2023/09/10 06:49:53;;;;;;;4.12;2.40;;;;;;;27.03;24.99;100848.09;1802903;79;21342;-79
2023/09/10 06:52:40;;;;;;;6.40;2.12;;;;;;;25.96;26.36;100851.45;1804377;79;21327;-79
2023/09/10 06:55:48;;;;;;;5.45;2.30;;;;;;;26.60;25.79;100858.48;1804153;79;21307;-79
2023/09/10 06:58:54;;;;;;;3.90;1.70;;;;;;;26.94;25.63;100849.72;1803033;79;21314;-79
2023/09/10 07:01:59;;;;;;;3.05;1.70;;;;;;;27.18;25.04;100829.94;1804173;79;21295;-78
2023/09/10 07:05:05;;;;;;;13.60;2.27;;;;;;;27.41;24.89;100841.26;1804178;79;21287;-77
2023/09/10 07:08:12;;;;;;;5.45;1.62;;;;;;;27.65;24.43;100836.55;1804210;79;21330;-77
2023/09/10 07:11:18;;;;;;;4.87;1.87;;;;;;;27.80;24.39;100838.02;1801860;79;21356;-77
2023/09/10 07:14:24;;;;;;;6.58;1.60;;;;;;;27.78;24.14;100840.84;1800257;79;21858;-77
2023/09/10 07:17:31;;;;;;;7.72;1.67;;;;;;;27.91;24.04;100824.84;1801494;79;21619;-77
2023/09/10 07:20:37;;;;;;;7.15;2.00;;;;;;;28.12;24.00;100831.31;1799987;79;21323;-78
2023/09/10 07:23:44;;;;;;;8.50;1.65;;;;;;;28.40;23.45;100841.19;1799973;79;21283;-78
2023/09/10 07:26:51;;;;;;;7.97;1.60;;;;;;;28.23;23.53;100831.58;1801803;79;21638;-77
2023/09/10 07:29:56;;;;;;;12.30;1.40;;;;;;;28.55;23.07;100826.25;1800582;79;21338;-77
2023/09/10 07:33:02;;;;;;;3.60;1.70;;;;;;;28.55;22.98;100828.50;1801617;79;21303;-77
2023/09/10 07:36:08;;;;;;;2.30;1.40;;;;;;;28.61;23.19;100818.95;1800066;79;21287;-77
2023/09/10 07:39:14;;;;;;;1.85;1.25;;;;;;;28.56;23.25;100825.99;1799921;79;21334;-78
2023/09/10 07:42:21;;;;;;;4.87;1.40;;;;;;;28.59;23.08;100831.59;1801618;79;21334;-78
2023/09/10 07:45:27;;;;;;;3.62;1.47;;;;;;;28.65;22.99;100824.83;1800309;79;21659;-77
2023/09/10 07:48:34;;;;;;;3.47;1.20;;;;;;;28.73;22.85;100820.87;1801723;79;21309;-78
2023/09/10 07:51:39;;;;;;;2.37;1.60;;;;;;;28.71;22.82;100821.73;1801568;79;21299;-78
2023/09/10 07:54:48;;;;;;;2.52;1.27;;;;;;;28.69;22.97;100825.95;1801371;79;21338;-78
2023/09/10 07:57:53;;;;;;;2.12;1.22;;;;;;;28.77;22.89;100819.17;1801552;79;21294;-77
2023/09/10 08:01:04;;;;;;;2.08;1.37;;;;;;;28.80;22.84;100821.16;1800590;79;21862;-78
2023/09/10 08:04:08;;;;;;;;;;;;;;;28.99;22.70;100826.48;1802814;79;21313;-78
2023/09/10 08:07:12;;;;;;;8.53;1.60;;;;;;;28.85;22.88;100816.35;1801622;79;20679;-77
2023/09/10 08:10:17;;;;;;;9.43;1.17;;;;;;;28.96;22.92;100821.41;1802601;79;22147;-77
2023/09/10 08:13:23;;;;;;;1.45;0.93;;;;;;;28.77;23.34;100824.80;1798578;79;21283;-77
2023/09/10 08:16:30;;;;;;;3.80;1.65;;;;;;;29.02;23.14;100818.84;1798622;79;21279;-77
2023/09/10 08:19:36;;;;;;;1.82;1.17;;;;;;;29.14;23.40;100810.92;1798527;79;21842;-77
2023/09/10 08:22:42;;;;;;;1.80;1.10;;;;;;;28.96;23.47;100814.38;1786278;79;21295;-77
2023/09/10 08:25:51;;;;;;;1.72;1.07;;;;;;;29.12;23.63;100810.35;1737031;82;21326;-77
2023/09/10 08:28:55;;;;;;;4.53;1.20;;;;;;;29.27;23.70;100817.34;1736926;82;21307;-77
2023/09/10 08:32:01;;;;;;;4.37;1.45;;;;;;;29.56;23.55;100813.01;1735379;82;21981;-77
2023/09/10 08:35:07;;;;;;;5.17;1.30;;;;;;;29.57;23.46;100804.25;1737030;82;21299;-78
2023/09/10 08:38:12;;;;;;;1.40;1.00;;;;;;;29.55;23.38;100814.98;1771966;79;21929;-76
2023/09/10 08:41:50;;;;;;;1.90;1.25;;;;;;;29.69;23.20;100806.70;1797736;79;21270;-79
2023/09/10 08:44:59;;;;;;;3.50;1.10;;;;;;;29.67;23.34;100799.95;1798516;79;21298;-79
2023/09/10 08:48:04;;;;;;;4.50;1.22;;;;;;;29.83;23.28;100810.58;1797391;79;21873;-79
2023/09/10 08:51:09;;;;;;;5.70;1.50;;;;;;;29.90;23.37;100806.00;1797973;79;21326;-76
2023/09/10 08:54:15;;;;;;;1.95;1.02;;;;;;;30.04;23.27;100797.16;1782101;79;21280;-76
2023/09/10 08:57:19;;;;;;;6.45;1.80;;;;;;;29.89;23.48;100799.53;1767175;81;21314;-79
2023/09/10 09:00:25;;;;;;;4.58;1.42;;;;;;;29.88;23.35;100802.08;1766710;81;21910;-79
2023/09/10 09:03:30;;;;;;;2.58;1.32;;;;;;;30.28;23.03;100800.91;1768130;81;21298;-77
2023/09/10 09:06:37;;;;;;;7.17;1.30;;;;;;;30.29;23.05;100797.52;1767161;81;21295;-78
2023/09/10 09:09:45;;;;;;;9.13;1.62;;;;;;;30.46;23.18;100794.27;1767069;81;21335;-78
2023/09/10 09:12:50;;;;;;;5.97;1.60;;;;;;;30.59;22.91;100794.98;1772426;79;21342;-78
2023/09/10 09:15:56;;;;;;;2.87;1.50;;;;;;;30.58;22.98;100799.49;1757831;81;21326;-78
2023/09/10 09:19:03;;;;;;;6.12;1.70;;;;;;;30.28;22.99;100791.61;1726055;82;21316;-78
2023/09/10 09:22:08;;;;;;;3.45;1.35;;;;;;;30.12;23.40;100795.69;1765329;80;21306;-78
2023/09/10 09:25:16;;;;;;;10.30;2.05;;;;;;;29.96;23.48;100782.27;1755720;79;21330;-78
2023/09/10 09:28:21;;;;;;;10.25;1.65;;;;;;;29.99;23.38;100785.34;1758462;81;21352;-78
2023/09/10 09:31:27;;;;;;;4.33;2.22;;;;;;;29.92;23.26;100779.75;1774461;80;21326;-78
2023/09/10 09:34:33;;;;;;;2.80;1.60;;;;;;;30.07;23.43;100775.42;1775322;80;21934;-78
2023/09/10 09:37:39;;;;;;;5.15;1.90;;;;;;;30.36;23.49;100771.23;1781912;80;21357;-78
2023/09/10 09:40:45;;;;;;;2.72;1.57;;;;;;;30.58;22.99;100760.81;1792268;79;21311;-78
2023/09/10 09:43:51;;;;;;;3.05;1.60;;;;;;;30.69;22.93;100759.58;1793212;79;21799;-78
2023/09/10 09:46:57;;;;;;;2.62;1.50;;;;;;;30.69;22.87;100765.22;1792357;79;21327;-78
2023/09/10 09:50:03;;;;;;;2.87;1.40;;;;;;;30.71;23.11;100755.91;1793334;79;21284;-78
2023/09/10 09:53:09;;;;;;;2.05;1.47;;;;;;;30.59;22.92;100759.70;1789401;79;21304;-78
2023/09/10 09:56:15;;;;;;;5.30;1.42;;;;;;;30.62;22.91;100751.19;1754862;81;21302;-78
2023/09/10 09:59:21;;;;;;;5.22;1.52;;;;;;;30.66;23.14;100744.64;1767484;81;21310;-78
2023/09/10 10:02:27;;;;;;;1.95;1.20;;;;;;;30.79;22.91;100737.47;1766339;81;21325;-78
2023/09/10 10:05:33;;;;;;;6.58;1.70;;;;;;;30.80;22.94;100751.28;1767182;81;21309;-78
2023/09/10 10:08:40;;;;;;;7.70;1.60;;;;;;;30.83;22.60;100754.08;1775514;79;21306;-78
2023/09/10 10:11:45;;;;;;;5.75;1.42;;;;;;;31.00;22.68;100738.87;1798543;79;22388;-78
2023/09/10 10:14:51;;;;;;;3.70;1.15;;;;;;;30.85;22.93;100746.72;1801258;79;21326;-78
2023/09/10 10:17:56;;;;;;;3.58;1.50;;;;;;;30.87;23.02;100734.56;1802488;79;21349;-78
2023/09/10 10:21:03;;;;;;;2.25;1.40;;;;;;;30.81;23.14;100742.23;1803771;79;21326;-78
2023/09/10 10:24:12;;;;;;;13.72;1.30;;;;;;;30.73;23.48;100744.33;1803898;79;21287;-78
2023/09/10 10:27:16;;;;;;;6.67;1.37;;;;;;;30.64;23.47;100751.75;1803796;79;21299;-78
2023/09/10 10:30:23;;;;;;;4.05;1.27;;;;;;;30.72;23.45;100745.45;1804055;79;21283;-78
2023/09/10 10:33:31;;;;;;;1.60;1.17;;;;;;;30.72;23.31;100746.86;1802871;79;21318;-78
2023/09/10 10:37:19;;;;;;;5.20;1.30;;;;;;;30.64;23.67;100744.69;1802908;79;21330;-78
2023/09/10 10:40:34;;;;;;;6.83;1.40;;;;;;;30.64;23.64;100739.05;1804212;79;21243;-78
2023/09/10 10:43:48;;;;;;;2.30;1.27;;;;;;;30.71;23.64;100726.26;1802978;79;21291;-78
2023/09/10 10:46:54;;;;;;;1.42;1.07;;;;;;;30.69;23.68;100722.04;1803924;79;21314;-78
2023/09/10 10:50:01;;;;;;;2.72;1.25;;;;;;;30.55;23.87;100726.98;1802895;79;21291;-78
2023/09/10 10:53:14;;;;;;;4.47;1.00;;;;;;;30.57;23.82;100732.90;1801810;79;21295;-78
2023/09/10 10:56:19;;;;;;;3.75;1.07;;;;;;;30.68;23.69;100712.73;1772771;81;21298;-78
2023/09/10 10:59:26;;;;;;;4.92;1.32;;;;;;;30.72;23.80;100708.17;1773627;81;22142;-78
2023/09/10 11:02:31;;;;;;;3.00;1.30;;;;;;;30.65;23.61;100727.44;1772138;81;21329;-78
2023/09/10 11:06:05;;;;;;;1.80;1.20;;;;;;;30.25;24.12;100707.55;1772536;81;21297;-78
2023/09/10 11:09:14;;;;;;;2.70;1.30;;;;;;;30.39;24.05;100701.48;1772783;79;21880;-78
2023/09/10 11:12:20;;;;;;;2.17;1.85;;;;;;;30.73;23.89;100697.17;1758510;81;21795;-78
2023/09/10 11:15:25;;;;;;;3.25;1.30;;;;;;;30.51;24.37;100703.89;1769301;80;21630;-78
2023/09/10 11:18:48;;;;;;;7.12;1.27;;;;;;;30.67;24.22;100699.73;1765160;81;22070;-78
2023/09/10 11:22:08;;;;;;;1.95;1.20;;;;;;;30.60;24.46;100687.14;1772017;80;21302;-77
2023/09/10 11:25:13;;;;;;;5.33;1.25;;;;;;;30.70;24.77;100693.50;1799176;79;21287;-78
2023/09/10 11:29:02;;;;;;;2.12;1.42;;;;;;;30.62;24.90;100688.51;1801439;79;21319;-78
2023/09/10 11:32:09;;;;;;;3.98;1.40;;;;;;;30.26;24.98;100681.89;1799603;79;21292;-78
2023/09/10 11:35:30;;;;;;;4.25;1.45;;;;;;;30.85;24.92;100692.48;1800810;79;22615;-78
2023/09/10 11:38:37;;;;;;;4.40;1.30;;;;;;;30.90;24.73;100681.69;1777698;79;21325;-79
2023/09/10 11:41:44;;;;;;;1.90;1.50;;;;;;;30.81;25.00;100680.11;1773191;80;21846;-78
2023/09/10 11:44:49;;;;;;;2.25;1.60;;;;;;;30.79;24.94;100681.83;1772115;80;21856;-78
2023/09/10 11:47:56;;;;;;;2.42;1.98;;;;;;;30.96;25.09;100674.28;1772093;80;22016;-79
2023/09/10 11:51:01;;;;;;;6.35;1.62;;;;;;;30.84;25.33;100682.34;1772246;80;21301;-79
2023/09/10 11:54:07;;;;;;;4.55;2.15;;;;;;;30.94;25.26;100676.55;1785570;79;21324;-79
2023/09/10 11:57:05;;;;;;;2.67;1.90;;;;;;;30.92;25.33;100666.72;1801830;79;21271;-78
2023/09/10 11:59:58;;;;;;;5.20;2.35;;;;;;;31.04;25.27;100662.84;1801878;79;21278;-78
2023/09/10 12:02:46;;;;;;;5.92;1.92;;;;;;;31.01;25.32;100661.49;1797275;79;21335;-79
2023/09/10 12:05:37;;;;;;;5.25;2.55;;;;;;;30.91;25.58;100667.84;1801827;79;21306;-78
2023/09/10 12:08:43;;;;;;;4.42;2.37;;;;;;;30.43;25.91;100663.05;1792263;79;21307;-79
2023/09/10 12:11:49;;;;;;;3.58;2.33;;;;;;;30.83;25.51;100658.66;1769650;81;21335;-78
2023/09/10 12:14:56;;;;;;;5.90;2.08;;;;;;;30.84;25.68;100668.80;1769988;79;21223;-79
2023/09/10 12:18:04;;;;;;;3.90;1.95;;;;;;;30.88;25.61;100655.75;1770433;81;21483;-80
2023/09/10 12:21:14;;;;;;;2.72;2.10;;;;;;;31.07;25.43;100658.02;1770118;81;21325;-80
2023/09/10 12:24:16;;;;;;;2.70;2.17;;;;;;;31.07;25.62;100658.02;1786878;79;21279;-79
2023/09/10 12:27:21;;;;;;;5.20;1.85;;;;;;;31.05;25.36;100658.33;1800691;79;21339;-77
2023/09/10 12:30:27;;;;;;;3.02;1.92;;;;;;;31.00;25.28;100659.79;1801324;79;21279;-77
2023/09/10 12:33:32;;;;;;;3.00;2.00;;;;;;;30.95;25.57;100659.86;1801294;79;21912;-77
2023/09/10 12:36:39;;;;;;;6.50;2.00;;;;;;;30.99;25.50;100653.87;1777803;79;21838;-76
2023/09/10 12:39:45;;;;;;;8.10;3.22;;;;;;;30.96;25.33;100653.64;1801086;79;21231;-78
2023/09/10 12:42:50;;;;;;;15.80;2.92;;;;;;;30.93;25.34;100652.86;1801203;79;21323;-77
2023/09/10 12:45:59;;;;;;;3.85;2.08;;;;;;;30.92;25.56;100654.01;1777577;79;21299;-78
2023/09/10 12:49:05;;;;;;;3.92;2.10;;;;;;;30.96;25.66;100650.27;1776920;79;22507;-78
2023/09/10 12:52:11;;;;;;;3.80;2.08;;;;;;;30.85;25.71;100649.30;1797034;79;21304;-78
2023/09/10 12:55:17;;;;;;;3.50;1.87;;;;;;;30.49;26.12;100653.41;1794066;80;21272;-78
2023/09/10 12:58:22;;;;;;;3.50;2.33;;;;;;;30.52;26.21;100642.06;1730033;83;21320;-78
2023/09/10 13:01:27;;;;;;;3.70;2.52;;;;;;;30.70;26.07;100637.03;1731449;83;21343;-77
2023/09/10 13:04:33;;;;;;;3.52;2.10;;;;;;;30.70;26.20;100635.62;1725291;82;21340;-78
2023/09/10 13:07:38;;;;;;;2.60;2.30;;;;;;;30.69;26.04;100640.17;1721297;82;21299;-78
2023/09/10 13:10:45;;;;;;;7.37;3.90;;;;;;;30.67;26.25;100629.16;1722910;82;21974;-77
2023/09/10 13:13:51;;;;;;;4.70;2.30;;;;;;;30.61;26.29;100633.20;1731137;82;21356;-78
2023/09/10 13:16:58;;;;;;;2.80;2.37;;;;;;;30.70;26.14;100644.67;1732690;82;21379;-77
2023/09/10 13:20:08;;;;;;;3.25;2.67;;;;;;;30.73;26.04;100635.06;1738005;82;21367;-77
2023/09/10 13:23:14;;;;;;;8.55;2.70;;;;;;;30.72;25.98;100630.53;1753763;81;21288;-78
2023/09/10 13:26:21;;;;;;;8.28;3.00;;;;;;;30.62;26.33;100637.70;1737430;82;21908;-78
2023/09/10 13:29:27;;;;;;;6.25;3.05;;;;;;;30.56;26.36;100633.27;1737576;82;21349;-78
2023/09/10 13:32:31;;;;;;;4.40;2.47;;;;;;;30.54;26.47;100632.75;1738921;82;21361;-78
2023/09/10 13:35:37;;;;;;;4.05;2.25;;;;;;;30.60;26.37;100635.77;1737932;82;21341;-78
2023/09/10 13:38:43;;;;;;;6.03;2.00;;;;;;;30.73;26.09;100629.41;1789358;79;22545;-78
2023/09/10 13:41:49;;;;;;;2.92;2.10;;;;;;;30.77;26.08;100634.73;1761868;81;21625;-78
2023/09/10 13:44:55;;;;;;;2.92;2.50;;;;;;;30.70;26.05;100622.92;1761777;81;21310;-78
2023/09/10 13:48:01;;;;;;;3.15;2.60;;;;;;;30.71;25.91;100631.68;1761949;81;21295;-78
2023/09/10 13:51:08;;;;;;;5.40;2.30;;;;;;;30.57;26.10;100624.23;1760702;81;22662;-78
2023/09/10 13:54:14;;;;;;;11.18;2.67;;;;;;;30.12;26.57;100631.52;1776723;80;21547;-78
2023/09/10 13:57:19;;;;;;;2.95;2.40;;;;;;;30.34;26.20;100625.92;1807325;79;21594;-78
2023/09/10 14:00:24;;;;;;;2.27;2.02;;;;;;;30.47;25.86;100618.98;1793174;80;21298;-78
2023/09/10 14:03:30;;;;;;;4.28;2.52;;;;;;;30.39;25.86;100624.45;1807487;79;21279;-78
2023/09/10 14:06:35;;;;;;;6.05;2.33;;;;;;;30.37;26.08;100621.10;1806864;79;21310;-78
2023/09/10 14:09:40;;;;;;;8.95;2.65;;;;;;;30.54;26.01;100630.77;1791934;80;21306;-78
2023/09/10 14:12:46;;;;;;;6.80;2.77;;;;;;;30.57;25.97;100621.41;1807250;79;22392;-77
2023/09/10 14:15:53;;;;;;;5.62;2.22;;;;;;;30.43;26.03;100626.37;1792612;80;21977;-78
2023/09/10 14:18:59;;;;;;;6.28;2.75;;;;;;;29.75;26.89;100628.79;1797145;79;21311;-78
2023/09/10 14:22:05;;;;;;;5.80;2.27;;;;;;;30.17;26.52;100623.03;1800249;79;21861;-78
2023/09/10 14:25:15;;;;;;;4.58;2.70;;;;;;;29.92;26.72;100631.14;1801315;79;21330;-78